sensor_id;sensor_type;location;lat;lon;timestamp;pressure;altitude;pressure_sealevel;temperature;humidity
13486;BME280;6815;59.336;17.998;2023-02-11T00:00:55;52252.84;;;-145.37;95.04
13486;BME280;6815;59.336;17.998;2023-02-11T00:03:21;52254.84;;;-145.37;96.18
13486;BME280;6815;59.336;17.998;2023-02-11T00:05:59;52216.91;;;-145.37;96.31
13486;BME280;6815;59.336;17.998;2023-02-11T00:08:25;52240.88;;;-145.37;95.83
13486;BME280;6815;59.336;17.998;2023-02-11T00:10:55;52188.97;;;-145.37;95.10
13486;BME280;6815;59.336;17.998;2023-02-11T00:13:22;52212.91;;;-145.37;95.55
13486;BME280;6815;59.336;17.998;2023-02-11T00:15:47;52220.91;;;-145.37;95.67
13486;BME280;6815;59.336;17.998;2023-02-11T00:18:13;52186.97;;;-145.37;96.06
13486;BME280;6815;59.336;17.998;2023-02-11T00:20:39;52226.91;;;-145.37;96.32
13486;BME280;6815;59.336;17.998;2023-02-11T00:23:05;52224.91;;;-145.37;97.11
13486;BME280;6815;59.336;17.998;2023-02-11T00:25:30;52244.84;;;-145.37;97.19
13486;BME280;6815;59.336;17.998;2023-02-11T00:27:56;52214.91;;;-145.37;97.26
13486;BME280;6815;59.336;17.998;2023-02-11T00:30:22;52212.91;;;-145.37;97.38
13486;BME280;6815;59.336;17.998;2023-02-11T00:32:47;52200.94;;;-145.37;98.48
13486;BME280;6815;59.336;17.998;2023-02-11T00:35:12;52220.91;;;-145.37;98.75
13486;BME280;6815;59.336;17.998;2023-02-11T00:37:38;52186.97;;;-145.37;98.31
13486;BME280;6815;59.336;17.998;2023-02-11T00:40:04;52204.94;;;-145.37;98.97
13486;BME280;6815;59.336;17.998;2023-02-11T00:42:29;52214.91;;;-145.37;99.26
13486;BME280;6815;59.336;17.998;2023-02-11T00:44:55;52196.94;;;-145.37;99.73
13486;BME280;6815;59.336;17.998;2023-02-11T00:47:20;52252.84;;;-145.37;99.61
13486;BME280;6815;59.336;17.998;2023-02-11T00:49:46;52212.91;;;-145.37;99.04
13486;BME280;6815;59.336;17.998;2023-02-11T00:52:14;52208.94;;;-145.37;99.57
13486;BME280;6815;59.336;17.998;2023-02-11T00:54:39;52210.91;;;-145.37;99.60
13486;BME280;6815;59.336;17.998;2023-02-11T00:57:05;52188.97;;;-145.37;99.94
13486;BME280;6815;59.336;17.998;2023-02-11T00:59:32;52200.94;;;-145.37;99.87
13486;BME280;6815;59.336;17.998;2023-02-11T01:01:57;52210.91;;;-145.37;100.00
13486;BME280;6815;59.336;17.998;2023-02-11T01:04:22;52204.94;;;-145.37;100.00
13486;BME280;6815;59.336;17.998;2023-02-11T01:06:48;52228.88;;;-145.37;100.00
13486;BME280;6815;59.336;17.998;2023-02-11T01:09:14;52214.91;;;-145.37;100.00
13486;BME280;6815;59.336;17.998;2023-02-11T01:11:40;52208.94;;;-145.37;99.69
13486;BME280;6815;59.336;17.998;2023-02-11T01:14:05;52204.94;;;-145.37;100.00
13486;BME280;6815;59.336;17.998;2023-02-11T01:16:31;52178.97;;;-145.37;100.00
13486;BME280;6815;59.336;17.998;2023-02-11T01:18:56;52194.94;;;-145.37;100.00
13486;BME280;6815;59.336;17.998;2023-02-11T01:21:23;52206.94;;;-145.37;100.00
13486;BME280;6815;59.336;17.998;2023-02-11T01:23:49;52210.91;;;-145.37;100.00
13486;BME280;6815;59.336;17.998;2023-02-11T01:26:18;52220.91;;;-145.37;100.00
13486;BME280;6815;59.336;17.998;2023-02-11T01:28:43;52157.03;;;-145.37;100.00
13486;BME280;6815;59.336;17.998;2023-02-11T01:31:09;52210.91;;;-145.37;100.00
13486;BME280;6815;59.336;17.998;2023-02-11T01:33:34;52165.00;;;-145.37;100.00
13486;BME280;6815;59.336;17.998;2023-02-11T01:36:01;52258.84;;;-145.37;100.00
13486;BME280;6815;59.336;17.998;2023-02-11T01:38:27;52200.94;;;-145.37;100.00
13486;BME280;6815;59.336;17.998;2023-02-11T01:40:59;52177.00;;;-145.37;100.00
13486;BME280;6815;59.336;17.998;2023-02-11T01:43:26;52169.00;;;-145.37;100.00
13486;BME280;6815;59.336;17.998;2023-02-11T01:45:58;52194.94;;;-145.37;100.00
13486;BME280;6815;59.336;17.998;2023-02-11T01:48:29;52196.94;;;-145.37;100.00
13486;BME280;6815;59.336;17.998;2023-02-11T01:51:06;52178.97;;;-145.37;100.00
13486;BME280;6815;59.336;17.998;2023-02-11T01:53:33;52177.00;;;-145.37;100.00
13486;BME280;6815;59.336;17.998;2023-02-11T01:56:20;52214.91;;;-145.37;100.00
13486;BME280;6815;59.336;17.998;2023-02-11T01:59:12;52194.94;;;-145.37;100.00
13486;BME280;6815;59.336;17.998;2023-02-11T02:01:42;52218.91;;;-145.37;100.00
13486;BME280;6815;59.336;17.998;2023-02-11T02:04:10;52202.94;;;-145.37;100.00
13486;BME280;6815;59.336;17.998;2023-02-11T02:06:43;52246.84;;;-145.37;100.00
13486;BME280;6815;59.336;17.998;2023-02-11T02:09:20;52234.88;;;-145.37;100.00
13486;BME280;6815;59.336;17.998;2023-02-11T02:11:47;52204.94;;;-145.37;100.00
13486;BME280;6815;59.336;17.998;2023-02-11T02:14:12;52192.97;;;-145.37;100.00
13486;BME280;6815;59.336;17.998;2023-02-11T02:16:38;52192.97;;;-145.37;100.00
13486;BME280;6815;59.336;17.998;2023-02-11T02:22:03;52190.97;;;-145.37;100.00
13486;BME280;6815;59.336;17.998;2023-02-11T02:33:18;52234.88;;;-145.37;100.00
13486;BME280;6815;59.336;17.998;2023-02-11T02:38:30;52192.97;;;-145.37;100.00
13486;BME280;6815;59.336;17.998;2023-02-11T02:41:13;52190.97;;;-145.37;100.00
13486;BME280;6815;59.336;17.998;2023-02-11T02:43:50;52188.97;;;-145.37;100.00
13486;BME280;6815;59.336;17.998;2023-02-11T02:46:31;52208.94;;;-145.37;100.00
13486;BME280;6815;59.336;17.998;2023-02-11T02:48:57;52175.00;;;-145.37;100.00
13486;BME280;6815;59.336;17.998;2023-02-11T02:59:37;52244.84;;;-145.37;100.00
13486;BME280;6815;59.336;17.998;2023-02-11T03:02:14;52200.94;;;-145.37;100.00
13486;BME280;6815;59.336;17.998;2023-02-11T03:04:51;52220.91;;;-145.37;100.00
13486;BME280;6815;59.336;17.998;2023-02-11T03:07:26;52212.91;;;-145.37;100.00
13486;BME280;6815;59.336;17.998;2023-02-11T03:10:08;52186.97;;;-145.37;100.00
13486;BME280;6815;59.336;17.998;2023-02-11T03:12:34;52216.91;;;-145.37;100.00
13486;BME280;6815;59.336;17.998;2023-02-11T03:15:03;52198.94;;;-145.37;100.00
13486;BME280;6815;59.336;17.998;2023-02-11T03:17:32;52204.94;;;-145.37;100.00
13486;BME280;6815;59.336;17.998;2023-02-11T03:20:00;52188.97;;;-145.37;100.00
13486;BME280;6815;59.336;17.998;2023-02-11T03:22:34;52178.97;;;-145.37;100.00
13486;BME280;6815;59.336;17.998;2023-02-11T03:25:03;52216.91;;;-145.37;100.00
13486;BME280;6815;59.336;17.998;2023-02-11T03:27:44;52232.88;;;-145.37;100.00
13486;BME280;6815;59.336;17.998;2023-02-11T03:30:46;52192.97;;;-145.37;100.00
13486;BME280;6815;59.336;17.998;2023-02-11T03:34:14;52167.00;;;-145.37;100.00
13486;BME280;6815;59.336;17.998;2023-02-11T03:36:25;52252.84;;;-145.37;100.00
13486;BME280;6815;59.336;17.998;2023-02-11T03:38:55;52216.91;;;-145.37;100.00
13486;BME280;6815;59.336;17.998;2023-02-11T03:41:24;52210.91;;;-145.37;100.00
13486;BME280;6815;59.336;17.998;2023-02-11T03:43:53;52202.94;;;-145.37;100.00
13486;BME280;6815;59.336;17.998;2023-02-11T03:46:26;52208.94;;;-145.37;100.00
13486;BME280;6815;59.336;17.998;2023-02-11T03:48:58;52186.97;;;-145.37;100.00
13486;BME280;6815;59.336;17.998;2023-02-11T03:51:28;52224.91;;;-145.37;99.42
13486;BME280;6815;59.336;17.998;2023-02-11T03:53:57;52200.94;;;-145.37;98.82
13486;BME280;6815;59.336;17.998;2023-02-11T03:56:26;52194.94;;;-145.37;98.00
13486;BME280;6815;59.336;17.998;2023-02-11T03:58:54;52186.97;;;-145.37;97.30
13486;BME280;6815;59.336;17.998;2023-02-11T04:01:21;52200.94;;;-145.37;97.40
13486;BME280;6815;59.336;17.998;2023-02-11T04:03:46;52204.94;;;-145.37;96.94
13486;BME280;6815;59.336;17.998;2023-02-11T04:06:12;52177.00;;;-145.37;96.80
13486;BME280;6815;59.336;17.998;2023-02-11T04:08:37;52198.94;;;-145.37;96.14
13486;BME280;6815;59.336;17.998;2023-02-11T04:11:03;52196.94;;;-145.37;96.20
13486;BME280;6815;59.336;17.998;2023-02-11T04:13:29;52177.00;;;-145.37;96.53
13486;BME280;6815;59.336;17.998;2023-02-11T04:15:54;52163.00;;;-145.37;96.83
13486;BME280;6815;59.336;17.998;2023-02-11T04:18:20;52200.94;;;-145.37;96.60
13486;BME280;6815;59.336;17.998;2023-02-11T04:20:45;52210.91;;;-145.37;96.51
13486;BME280;6815;59.336;17.998;2023-02-11T04:23:11;52218.91;;;-145.37;96.75
13486;BME280;6815;59.336;17.998;2023-02-11T04:25:37;52192.97;;;-145.37;96.32
13486;BME280;6815;59.336;17.998;2023-02-11T04:28:02;52198.94;;;-145.37;96.43
13486;BME280;6815;59.336;17.998;2023-02-11T04:30:28;52182.97;;;-145.37;95.88
13486;BME280;6815;59.336;17.998;2023-02-11T04:32:53;52190.97;;;-145.37;95.52
13486;BME280;6815;59.336;17.998;2023-02-11T04:35:19;52192.97;;;-145.37;95.10
13486;BME280;6815;59.336;17.998;2023-02-11T04:37:45;52161.03;;;-145.37;94.96
13486;BME280;6815;59.336;17.998;2023-02-11T04:40:11;52161.03;;;-145.37;95.10
13486;BME280;6815;59.336;17.998;2023-02-11T04:42:37;52186.97;;;-145.37;94.33
13486;BME280;6815;59.336;17.998;2023-02-11T04:45:03;52230.88;;;-145.37;93.81
13486;BME280;6815;59.336;17.998;2023-02-11T04:47:28;52204.94;;;-145.37;94.32
13486;BME280;6815;59.336;17.998;2023-02-11T04:49:54;52202.94;;;-145.37;94.46
13486;BME280;6815;59.336;17.998;2023-02-11T04:52:19;52175.00;;;-145.37;94.49
13486;BME280;6815;59.336;17.998;2023-02-11T04:54:45;52188.97;;;-145.37;94.26
13486;BME280;6815;59.336;17.998;2023-02-11T04:57:10;52177.00;;;-145.37;94.12
13486;BME280;6815;59.336;17.998;2023-02-11T04:59:36;52145.03;;;-145.37;93.02
13486;BME280;6815;59.336;17.998;2023-02-11T05:02:01;52206.94;;;-145.37;93.77
13486;BME280;6815;59.336;17.998;2023-02-11T05:04:28;52212.91;;;-145.37;93.81
13486;BME280;6815;59.336;17.998;2023-02-11T05:06:53;52171.00;;;-145.37;93.56
13486;BME280;6815;59.336;17.998;2023-02-11T05:09:19;52180.97;;;-145.37;93.47
13486;BME280;6815;59.336;17.998;2023-02-11T05:11:44;52202.94;;;-145.37;92.74
13486;BME280;6815;59.336;17.998;2023-02-11T05:14:10;52208.94;;;-145.37;92.65
13486;BME280;6815;59.336;17.998;2023-02-11T05:16:35;52169.00;;;-145.37;91.11
13486;BME280;6815;59.336;17.998;2023-02-11T05:19:01;52163.00;;;-145.37;89.70
13486;BME280;6815;59.336;17.998;2023-02-11T05:21:26;52157.03;;;-145.37;89.07
13486;BME280;6815;59.336;17.998;2023-02-11T05:23:53;52149.03;;;-145.37;88.57
13486;BME280;6815;59.336;17.998;2023-02-11T05:26:19;52175.00;;;-145.37;88.41
13486;BME280;6815;59.336;17.998;2023-02-11T05:28:44;52222.91;;;-145.37;88.61
13486;BME280;6815;59.336;17.998;2023-02-11T05:31:14;52196.94;;;-145.37;87.92
13486;BME280;6815;59.336;17.998;2023-02-11T05:33:41;52216.91;;;-145.37;87.64
13486;BME280;6815;59.336;17.998;2023-02-11T05:36:09;52173.00;;;-145.37;87.73
13486;BME280;6815;59.336;17.998;2023-02-11T05:38:35;52210.91;;;-145.37;87.07
13486;BME280;6815;59.336;17.998;2023-02-11T05:41:01;52204.94;;;-145.37;87.10
13486;BME280;6815;59.336;17.998;2023-02-11T05:43:26;52177.00;;;-145.37;86.70
13486;BME280;6815;59.336;17.998;2023-02-11T05:45:52;52264.81;;;-145.37;85.24
13486;BME280;6815;59.336;17.998;2023-02-11T05:48:17;52194.94;;;-145.37;85.30
13486;BME280;6815;59.336;17.998;2023-02-11T05:50:43;52173.00;;;-145.37;85.79
13486;BME280;6815;59.336;17.998;2023-02-11T05:53:09;52169.00;;;-145.37;85.55
13486;BME280;6815;59.336;17.998;2023-02-11T05:55:35;52175.00;;;-145.37;85.29
13486;BME280;6815;59.336;17.998;2023-02-11T05:58:00;52171.00;;;-145.37;85.57
13486;BME280;6815;59.336;17.998;2023-02-11T06:00:26;52216.91;;;-145.37;85.13
13486;BME280;6815;59.336;17.998;2023-02-11T06:02:51;52202.94;;;-145.37;85.31
13486;BME280;6815;59.336;17.998;2023-02-11T06:05:17;52147.03;;;-145.37;85.82
13486;BME280;6815;59.336;17.998;2023-02-11T06:07:43;52173.00;;;-145.37;86.12
13486;BME280;6815;59.336;17.998;2023-02-11T06:10:08;52200.94;;;-145.37;86.31
13486;BME280;6815;59.336;17.998;2023-02-11T06:12:35;52163.00;;;-145.37;86.03
13486;BME280;6815;59.336;17.998;2023-02-11T06:15:01;52216.91;;;-145.37;86.05
13486;BME280;6815;59.336;17.998;2023-02-11T06:17:26;52190.97;;;-145.37;85.71
13486;BME280;6815;59.336;17.998;2023-02-11T06:19:56;52173.00;;;-145.37;85.59
13486;BME280;6815;59.336;17.998;2023-02-11T06:22:22;52145.03;;;-145.37;85.16
13486;BME280;6815;59.336;17.998;2023-02-11T06:24:48;52151.03;;;-145.37;85.58
13486;BME280;6815;59.336;17.998;2023-02-11T06:27:13;52161.03;;;-145.37;85.16
13486;BME280;6815;59.336;17.998;2023-02-11T06:29:39;52153.03;;;-145.37;85.34
13486;BME280;6815;59.336;17.998;2023-02-11T06:32:04;52157.03;;;-145.37;85.57
13486;BME280;6815;59.336;17.998;2023-02-11T06:34:30;52188.97;;;-145.37;85.05
13486;BME280;6815;59.336;17.998;2023-02-11T06:36:55;52184.97;;;-145.37;84.57
13486;BME280;6815;59.336;17.998;2023-02-11T06:39:20;52133.06;;;-145.37;85.21
13486;BME280;6815;59.336;17.998;2023-02-11T06:41:46;52184.97;;;-145.37;84.92
13486;BME280;6815;59.336;17.998;2023-02-11T06:44:11;52167.00;;;-145.37;84.45
13486;BME280;6815;59.336;17.998;2023-02-11T06:46:37;52177.00;;;-145.37;84.89
13486;BME280;6815;59.336;17.998;2023-02-11T06:49:03;52153.03;;;-145.37;84.57
13486;BME280;6815;59.336;17.998;2023-02-11T06:51:29;52194.94;;;-145.37;85.12
13486;BME280;6815;59.336;17.998;2023-02-11T06:53:55;52184.97;;;-145.37;85.65
13486;BME280;6815;59.336;17.998;2023-02-11T06:56:22;52167.00;;;-145.37;85.43
13486;BME280;6815;59.336;17.998;2023-02-11T06:58:52;52171.00;;;-145.37;85.60
13486;BME280;6815;59.336;17.998;2023-02-11T07:01:20;52178.97;;;-145.37;86.06
13486;BME280;6815;59.336;17.998;2023-02-11T07:03:46;52171.00;;;-145.37;86.13
13486;BME280;6815;59.336;17.998;2023-02-11T07:06:14;52165.00;;;-145.37;86.17
13486;BME280;6815;59.336;17.998;2023-02-11T07:08:40;52153.03;;;-145.37;86.34
13486;BME280;6815;59.336;17.998;2023-02-11T07:11:25;52186.97;;;-145.37;86.34
13486;BME280;6815;59.336;17.998;2023-02-11T07:13:54;52184.97;;;-145.37;86.42
13486;BME280;6815;59.336;17.998;2023-02-11T07:16:20;52159.03;;;-145.37;86.89
13486;BME280;6815;59.336;17.998;2023-02-11T07:18:47;52171.00;;;-145.37;86.59
13486;BME280;6815;59.336;17.998;2023-02-11T07:21:15;52135.06;;;-145.37;87.20
13486;BME280;6815;59.336;17.998;2023-02-11T07:23:41;52151.03;;;-145.37;87.29
13486;BME280;6815;59.336;17.998;2023-02-11T07:26:12;52151.03;;;-145.37;87.02
13486;BME280;6815;59.336;17.998;2023-02-11T07:28:39;52175.00;;;-145.37;87.12
13486;BME280;6815;59.336;17.998;2023-02-11T07:31:10;52196.94;;;-145.37;86.71
13486;BME280;6815;59.336;17.998;2023-02-11T07:33:37;52178.97;;;-145.37;86.60
13486;BME280;6815;59.336;17.998;2023-02-11T07:36:04;52169.00;;;-145.37;87.06
13486;BME280;6815;59.336;17.998;2023-02-11T07:38:32;52204.94;;;-145.37;85.79
13486;BME280;6815;59.336;17.998;2023-02-11T07:41:09;52171.00;;;-145.37;85.48
13486;BME280;6815;59.336;17.998;2023-02-11T07:43:37;52196.94;;;-145.37;85.17
13486;BME280;6815;59.336;17.998;2023-02-11T07:46:04;52194.94;;;-145.37;85.54
13486;BME280;6815;59.336;17.998;2023-02-11T07:48:30;52167.00;;;-145.37;86.04
13486;BME280;6815;59.336;17.998;2023-02-11T07:51:07;52210.91;;;-145.37;85.68
13486;BME280;6815;59.336;17.998;2023-02-11T07:53:33;52129.06;;;-145.37;85.72
13486;BME280;6815;59.336;17.998;2023-02-11T07:55:58;52169.00;;;-145.37;86.19
13486;BME280;6815;59.336;17.998;2023-02-11T07:58:24;52178.97;;;-145.37;86.08
13486;BME280;6815;59.336;17.998;2023-02-11T08:00:49;52186.97;;;-145.37;86.25
13486;BME280;6815;59.336;17.998;2023-02-11T08:03:14;52196.94;;;-145.37;86.39
13486;BME280;6815;59.336;17.998;2023-02-11T08:05:40;52173.00;;;-145.37;86.22
13486;BME280;6815;59.336;17.998;2023-02-11T08:08:05;52157.03;;;-145.37;86.64
13486;BME280;6815;59.336;17.998;2023-02-11T08:10:31;52206.94;;;-145.37;85.91
13486;BME280;6815;59.336;17.998;2023-02-11T08:12:57;52151.03;;;-145.37;86.38
13486;BME280;6815;59.336;17.998;2023-02-11T08:15:23;52165.00;;;-145.37;86.72
13486;BME280;6815;59.336;17.998;2023-02-11T08:17:48;52155.03;;;-145.37;86.52
13486;BME280;6815;59.336;17.998;2023-02-11T08:20:13;52222.91;;;-145.37;86.64
13486;BME280;6815;59.336;17.998;2023-02-11T08:22:39;52216.91;;;-145.37;86.45
13486;BME280;6815;59.336;17.998;2023-02-11T08:25:05;52175.00;;;-145.37;86.29
13486;BME280;6815;59.336;17.998;2023-02-11T08:27:30;52180.97;;;-145.37;86.23
13486;BME280;6815;59.336;17.998;2023-02-11T08:29:56;52177.00;;;-145.37;86.02
13486;BME280;6815;59.336;17.998;2023-02-11T08:32:23;52188.97;;;-145.37;85.12
13486;BME280;6815;59.336;17.998;2023-02-11T08:34:52;52190.97;;;-145.37;86.40
13486;BME280;6815;59.336;17.998;2023-02-11T08:37:18;52188.97;;;-145.37;86.17
13486;BME280;6815;59.336;17.998;2023-02-11T08:39:44;52147.03;;;-145.37;85.15
13486;BME280;6815;59.336;17.998;2023-02-11T08:42:12;52186.97;;;-145.37;85.33
13486;BME280;6815;59.336;17.998;2023-02-11T08:44:38;52161.03;;;-145.37;85.07
13486;BME280;6815;59.336;17.998;2023-02-11T08:47:03;52175.00;;;-145.37;85.16
13486;BME280;6815;59.336;17.998;2023-02-11T08:49:29;52149.03;;;-145.37;85.10
13486;BME280;6815;59.336;17.998;2023-02-11T08:51:55;52163.00;;;-145.37;85.01
13486;BME280;6815;59.336;17.998;2023-02-11T08:54:23;52198.94;;;-145.37;84.89
13486;BME280;6815;59.336;17.998;2023-02-11T08:56:50;52188.97;;;-145.37;85.27
13486;BME280;6815;59.336;17.998;2023-02-11T08:59:15;52196.94;;;-145.37;85.12
13486;BME280;6815;59.336;17.998;2023-02-11T09:01:42;52180.97;;;-145.37;85.26
13486;BME280;6815;59.336;17.998;2023-02-11T09:04:08;52196.94;;;-145.37;85.07
13486;BME280;6815;59.336;17.998;2023-02-11T09:06:35;52161.03;;;-145.37;85.19
13486;BME280;6815;59.336;17.998;2023-02-11T09:09:01;52192.97;;;-145.37;85.47
13486;BME280;6815;59.336;17.998;2023-02-11T09:11:32;52163.00;;;-145.37;84.84
13486;BME280;6815;59.336;17.998;2023-02-11T09:13:58;52180.97;;;-145.37;84.35
13486;BME280;6815;59.336;17.998;2023-02-11T09:16:28;52169.00;;;-145.37;84.44
13486;BME280;6815;59.336;17.998;2023-02-11T09:18:58;52169.00;;;-145.37;84.61
13486;BME280;6815;59.336;17.998;2023-02-11T09:21:25;52184.97;;;-145.37;84.18
13486;BME280;6815;59.336;17.998;2023-02-11T09:23:50;52173.00;;;-145.37;84.11
13486;BME280;6815;59.336;17.998;2023-02-11T09:26:19;52177.00;;;-145.37;83.18
13486;BME280;6815;59.336;17.998;2023-02-11T09:28:45;52204.94;;;-145.37;82.04
13486;BME280;6815;59.336;17.998;2023-02-11T09:31:14;52196.94;;;-145.37;81.69
13486;BME280;6815;59.336;17.998;2023-02-11T09:33:43;52186.97;;;-145.37;81.23
13486;BME280;6815;59.336;17.998;2023-02-11T09:36:16;52173.00;;;-145.37;81.37
13486;BME280;6815;59.336;17.998;2023-02-11T09:38:42;52178.97;;;-145.37;80.63
13486;BME280;6815;59.336;17.998;2023-02-11T09:44:01;52186.97;;;-145.37;78.65
13486;BME280;6815;59.336;17.998;2023-02-11T09:46:38;52194.94;;;-145.37;79.23
13486;BME280;6815;59.336;17.998;2023-02-11T09:49:05;52204.94;;;-145.37;79.37
13486;BME280;6815;59.336;17.998;2023-02-11T09:51:41;52161.03;;;-145.37;80.86
13486;BME280;6815;59.336;17.998;2023-02-11T09:54:19;52196.94;;;-145.37;80.95
13486;BME280;6815;59.336;17.998;2023-02-11T09:56:47;52177.00;;;-145.37;80.33
13486;BME280;6815;59.336;17.998;2023-02-11T09:59:14;52212.91;;;-145.37;80.38
13486;BME280;6815;59.336;17.998;2023-02-11T10:02:02;52188.97;;;-145.37;80.70
13486;BME280;6815;59.336;17.998;2023-02-11T10:10:20;52210.91;;;-145.37;80.00
13486;BME280;6815;59.336;17.998;2023-02-11T10:15:50;52169.00;;;-145.37;80.56
13486;BME280;6815;59.336;17.998;2023-02-11T10:23:32;52204.94;;;-145.37;80.52
13486;BME280;6815;59.336;17.998;2023-02-11T10:25:58;52157.03;;;-145.37;80.65
13486;BME280;6815;59.336;17.998;2023-02-11T10:28:33;52208.94;;;-145.37;80.20
13486;BME280;6815;59.336;17.998;2023-02-11T10:31:02;52167.00;;;-145.37;80.55
13486;BME280;6815;59.336;17.998;2023-02-11T10:34:00;52171.00;;;-145.37;81.05
13486;BME280;6815;59.336;17.998;2023-02-11T10:36:29;52161.03;;;-145.37;81.13
13486;BME280;6815;59.336;17.998;2023-02-11T10:39:18;52222.91;;;-145.37;80.84
13486;BME280;6815;59.336;17.998;2023-02-11T10:41:55;52188.97;;;-145.37;80.76
13486;BME280;6815;59.336;17.998;2023-02-11T10:44:33;52169.00;;;-145.37;80.82
13486;BME280;6815;59.336;17.998;2023-02-11T10:47:24;52171.00;;;-145.37;80.73
13486;BME280;6815;59.336;17.998;2023-02-11T10:49:51;52161.03;;;-145.37;80.16
13486;BME280;6815;59.336;17.998;2023-02-11T10:57:30;52206.94;;;-145.37;80.72
13486;BME280;6815;59.336;17.998;2023-02-11T10:59:58;52169.00;;;-145.37;80.13
13486;BME280;6815;59.336;17.998;2023-02-11T11:02:33;52177.00;;;-145.37;80.90
13486;BME280;6815;59.336;17.998;2023-02-11T11:05:05;52216.91;;;-145.37;80.10
13486;BME280;6815;59.336;17.998;2023-02-11T11:08:08;52210.91;;;-145.37;79.37
13486;BME280;6815;59.336;17.998;2023-02-11T11:13:01;52169.00;;;-145.37;79.23
13486;BME280;6815;59.336;17.998;2023-02-11T11:15:29;52178.97;;;-145.37;79.05
13486;BME280;6815;59.336;17.998;2023-02-11T11:20:35;52147.03;;;-145.37;79.49
13486;BME280;6815;59.336;17.998;2023-02-11T11:25:41;52198.94;;;-145.37;79.44
13486;BME280;6815;59.336;17.998;2023-02-11T11:28:23;52157.03;;;-145.37;79.48
13486;BME280;6815;59.336;17.998;2023-02-11T11:30:51;52194.94;;;-145.37;79.18
13486;BME280;6815;59.336;17.998;2023-02-11T11:33:32;52182.97;;;-145.37;78.73
13486;BME280;6815;59.336;17.998;2023-02-11T11:36:10;52163.00;;;-145.37;77.67
13486;BME280;6815;59.336;17.998;2023-02-11T11:38:49;52141.06;;;-145.37;78.05
13486;BME280;6815;59.336;17.998;2023-02-11T11:44:02;52182.97;;;-145.37;77.60
13486;BME280;6815;59.336;17.998;2023-02-11T11:46:34;52171.00;;;-145.37;77.13
13486;BME280;6815;59.336;17.998;2023-02-11T11:49:21;52163.00;;;-145.37;77.79
13486;BME280;6815;59.336;17.998;2023-02-11T11:52:24;52159.03;;;-145.37;77.66
13486;BME280;6815;59.336;17.998;2023-02-11T11:57:36;52194.94;;;-145.37;77.18
13486;BME280;6815;59.336;17.998;2023-02-11T12:00:03;52178.97;;;-145.37;77.18
13486;BME280;6815;59.336;17.998;2023-02-11T12:05:35;52182.97;;;-145.37;76.88
13486;BME280;6815;59.336;17.998;2023-02-11T12:26:20;52192.97;;;-145.37;76.33
13486;BME280;6815;59.336;17.998;2023-02-11T12:40:15;52178.97;;;-145.37;76.35
13486;BME280;6815;59.336;17.998;2023-02-11T12:50:57;52171.00;;;-145.37;75.76
13486;BME280;6815;59.336;17.998;2023-02-11T12:53:34;52212.91;;;-145.37;75.68
13486;BME280;6815;59.336;17.998;2023-02-11T12:56:19;52141.06;;;-145.37;75.87
13486;BME280;6815;59.336;17.998;2023-02-11T12:58:46;52190.97;;;-145.37;75.42
13486;BME280;6815;59.336;17.998;2023-02-11T13:04:25;52184.97;;;-145.37;75.22
13486;BME280;6815;59.336;17.998;2023-02-11T13:06:58;52169.00;;;-145.37;74.87
13486;BME280;6815;59.336;17.998;2023-02-11T13:09:38;52147.03;;;-145.37;74.57
13486;BME280;6815;59.336;17.998;2023-02-11T13:12:06;52155.03;;;-145.37;74.97
13486;BME280;6815;59.336;17.998;2023-02-11T13:14:55;52175.00;;;-145.37;74.53
13486;BME280;6815;59.336;17.998;2023-02-11T13:17:51;52177.00;;;-145.37;74.59
13486;BME280;6815;59.336;17.998;2023-02-11T13:26:01;52177.00;;;-145.37;74.37
13486;BME280;6815;59.336;17.998;2023-02-11T13:28:46;52161.03;;;-145.37;74.00
13486;BME280;6815;59.336;17.998;2023-02-11T13:31:12;52129.06;;;-145.37;74.14
13486;BME280;6815;59.336;17.998;2023-02-11T13:33:41;52173.00;;;-145.37;73.93
13486;BME280;6815;59.336;17.998;2023-02-11T13:36:27;52180.97;;;-145.37;73.22
13486;BME280;6815;59.336;17.998;2023-02-11T13:39:19;52177.00;;;-145.37;72.68
13486;BME280;6815;59.336;17.998;2023-02-11T13:41:45;52184.97;;;-145.37;72.75
13486;BME280;6815;59.336;17.998;2023-02-11T13:49:49;52190.97;;;-145.37;73.13
13486;BME280;6815;59.336;17.998;2023-02-11T13:52:23;52167.00;;;-145.37;73.67
13486;BME280;6815;59.336;17.998;2023-02-11T13:54:52;52220.91;;;-145.37;73.50
13486;BME280;6815;59.336;17.998;2023-02-11T13:57:24;52196.94;;;-145.37;72.98
13486;BME280;6815;59.336;17.998;2023-02-11T14:02:39;52153.03;;;-145.37;72.46
13486;BME280;6815;59.336;17.998;2023-02-11T14:05:29;52173.00;;;-145.37;71.95
13486;BME280;6815;59.336;17.998;2023-02-11T14:08:15;52145.03;;;-145.37;71.67
13486;BME280;6815;59.336;17.998;2023-02-11T14:16:29;52188.97;;;-145.37;71.27
13486;BME280;6815;59.336;17.998;2023-02-11T14:23:53;52212.91;;;-145.37;72.05
13486;BME280;6815;59.336;17.998;2023-02-11T14:29:34;52204.94;;;-145.37;72.13
13486;BME280;6815;59.336;17.998;2023-02-11T14:35:02;52182.97;;;-145.37;72.22
13486;BME280;6815;59.336;17.998;2023-02-11T14:37:43;52177.00;;;-145.37;71.79
13486;BME280;6815;59.336;17.998;2023-02-11T14:40:17;52208.94;;;-145.37;71.24
13486;BME280;6815;59.336;17.998;2023-02-11T14:42:46;52165.00;;;-145.37;70.99
13486;BME280;6815;59.336;17.998;2023-02-11T14:45:18;52190.97;;;-145.37;71.55
13486;BME280;6815;59.336;17.998;2023-02-11T14:47:49;52145.03;;;-145.37;71.16
13486;BME280;6815;59.336;17.998;2023-02-11T14:50:23;52214.91;;;-145.37;71.49
13486;BME280;6815;59.336;17.998;2023-02-11T14:52:50;52184.97;;;-145.37;71.02
13486;BME280;6815;59.336;17.998;2023-02-11T14:55:38;52161.03;;;-145.37;70.94
13486;BME280;6815;59.336;17.998;2023-02-11T15:00:48;52149.03;;;-145.37;70.51
13486;BME280;6815;59.336;17.998;2023-02-11T15:06:39;52169.00;;;-145.37;70.58
13486;BME280;6815;59.336;17.998;2023-02-11T15:08:44;52155.03;;;-145.37;70.85